Wizard — WDC6082 — position and weather

sailwx.info

Track history (hours):
 
Tides and Currents Weather Stations Pressure Air Temp Water Temp Dewpoint Dewpoint Depression Visibility Wind Speed Wind Dir Waves Ship Positions

Wizard

Owner: K. H.Colburn Inc, Redmond, WA. More information available from US FCC via Universal Licensing System and Coast Guard Vessel Documentation Center.

Last reported at 2018-Apr-21 02:43 UTC. Time now 2018-Apr-21 08:05 UTC.
Position N 47°40' W 122°23'.

Length 52 m; draft 0.4 m.

MMSI: 5491.

Date/timePositionNaut miles runAvg speedWind from/ knotsBaromVisibWave heightAir tempDewpointWater temp
2018-Apr-21 02:43N 47°40' W 122°23'0 0.8
2018-Apr-21 02:30N 47°40' W 122°23'0 0.1
2018-Apr-21 02:00N 47°40' W 122°24'0 0.0
2018-Apr-21 01:30N 47°40' W 122°24'0 0.2
2018-Apr-21 01:00N 47°40' W 122°24'1 2.1
2018-Apr-21 00:31N 47°41' W 122°25'4 7.6
2018-Apr-21 00:00N 47°44' W 122°25'4 7.1
2018-Apr-20 23:31N 47°48' W 122°25'3 6.0
2018-Apr-20 23:01N 47°51' W 122°24'0 0.5
2018-Apr-20 22:30N 47°51' W 122°25'0 0.2
2018-Apr-20 22:00N 47°51' W 122°25'2 4.4
2018-Apr-20 21:30N 47°48' W 122°25'  
Track history (hours):
 
Tides and Currents Weather Stations Pressure Air Temp Water Temp Dewpoint Dewpoint Depression Visibility Wind Speed Wind Dir Waves Ship Positions

Wizard

Owner: K. H.Colburn Inc, Redmond, WA. More information available from US FCC via Universal Licensing System and Coast Guard Vessel Documentation Center.

Last reported at 2018-Apr-21 02:43 UTC. Time now 2018-Apr-21 08:05 UTC.
Position N 47°40' W 122°23'.

Length 52 m; draft 0.4 m.

MMSI: 5491.

Date/timePositionNaut miles runAvg speedWind from/ knotsBaromVisibWave heightAir tempDewpointWater temp
2018-Apr-21 02:43N 47°40' W 122°23'0 0.8
2018-Apr-21 02:30N 47°40' W 122°23'0 0.1
2018-Apr-21 02:00N 47°40' W 122°24'0 0.0
2018-Apr-21 01:30N 47°40' W 122°24'0 0.2
2018-Apr-21 01:00N 47°40' W 122°24'1 2.1
2018-Apr-21 00:31N 47°41' W 122°25'4 7.6
2018-Apr-21 00:00N 47°44' W 122°25'4 7.1
2018-Apr-20 23:31N 47°48' W 122°25'3 6.0
2018-Apr-20 23:01N 47°51' W 122°24'0 0.5
2018-Apr-20 22:30N 47°51' W 122°25'0 0.2
2018-Apr-20 22:00N 47°51' W 122°25'2 4.4
2018-Apr-20 21:30N 47°48' W 122°25'  

Dump ship's entire track history